This is the latest recevied weather packets stored in our database for station/object HA6IFZ-10. If no packets are shown the sender has not sent any weather packets the latest 10 day(s).
| Time | Temp. | Humidity | Pressure | Rain* | Wind** | Luminosity | Snow |
|---|---|---|---|---|---|---|---|
| 1788113894 | 24.44° C | 37% | 1024 hPa | - | - | - | - |
| 1788112994 | 25° C | 36% | 1023.8 hPa | - | - | - | - |
| 1788112094 | 25.56° C | 35% | 1023.7 hPa | - | - | - | - |
| 1788111194 | 26.11° C | 33% | 1023.6 hPa | - | - | - | - |
| 1788110294 | 27.22° C | 33% | 1023.4 hPa | - | - | - | - |
| 1788108494 | 29.44° C | 28% | 1023.3 hPa | - | - | - | - |
| 1788107594 | 30° C | 27% | 1023.4 hPa | - | - | - | - |
| 1788106694 | 30.56° C | 25% | 1023.4 hPa | - | - | - | - |
| 1788105794 | 30.56° C | 25% | 1023.4 hPa | - | - | - | - |
| 1788104894 | 31.11° C | 25% | 1023.4 hPa | - | - | - | - |
| 1788103994 | 31.11° C | 24% | 1023.5 hPa | - | - | - | - |
| 1788103093 | 31.11° C | 23% | 1023.4 hPa | - | - | - | - |
| 1788102193 | 31.67° C | 23% | 1023.5 hPa | - | - | - | - |
| 1788101293 | 30.56° C | 23% | 1023.5 hPa | - | - | - | - |
| 1788100393 | 31.11° C | 23% | 1023.7 hPa | - | - | - | - |
| 1788099493 | 30.56° C | 23% | 1023.7 hPa | - | - | - | - |
| 1788098593 | 31.11° C | 22% | 1023.8 hPa | - | - | - | - |
| 1788097693 | 31.67° C | 22% | 1023.9 hPa | - | - | - | - |
| 1788096793 | 32.22° C | 22% | 1023.9 hPa | - | - | - | - |
| 1788095893 | 31.67° C | 23% | 1024 hPa | - | - | - | - |
| 1788094993 | 31.67° C | 21% | 1024.1 hPa | - | - | - | - |
| 1788094092 | 32.22° C | 23% | 1024.1 hPa | - | - | - | - |
| 1788093192 | 31.67° C | 23% | 1024.4 hPa | - | - | - | - |
| 1788092292 | 31.67° C | 24% | 1024.3 hPa | - | - | - | - |
| 1788091392 | 31.67° C | 24% | 1024.4 hPa | - | - | - | - |
* Rain since midnight (hover to see other rain measurements)
** Current wind speed in m/s (hover to see current wind gust speed)